Time;durP1;ratioP1;P1;durP2;ratioP2;P2;SDS_P1;SDS_P2;PMS_P1;PMS_P2;Temp;Humidity;BMP_temperature;BMP_pressure;BME280_temperature;BME280_humidity;BME280_pressure;Samples;Min_cycle;Max_cycle;Signal;HPM_P1;HPM_P2
2023/04/18 00:02:18;;;;;;;3.65;3.60;;;;;;;;;;4227085;28;20043;-74
2023/04/18 00:04:38;;;;;;;3.22;3.13;;;;;;;;;;4212275;28;20051;-75
2023/04/18 00:06:59;;;;;;;3.13;3.03;;;;;;;;;;4227339;28;20050;-74
2023/04/18 00:09:20;;;;;;;3.30;3.20;;;;;;;;;;4232733;28;20046;-74
2023/04/18 00:11:41;;;;;;;3.75;3.65;;;;;;;;;;4216020;28;20054;-74
2023/04/18 00:14:02;;;;;;;3.90;3.80;;;;;;;;;;4226715;28;20117;-74
2023/04/18 00:16:22;;;;;;;4.45;4.40;;;;;;;;;;4227864;28;20097;-74
2023/04/18 00:18:43;;;;;;;3.95;3.92;;;;;;;;;;4231639;28;20051;-74
2023/04/18 00:21:04;;;;;;;4.40;4.30;;;;;;;;;;4226894;28;20146;-74
2023/04/18 00:23:27;;;;;;;4.20;4.10;;;;;;;;;;4233587;28;20054;-74
2023/04/18 00:25:47;;;;;;;3.83;3.83;;;;;;;;;;4235927;28;20081;-74
2023/04/18 00:28:08;;;;;;;3.63;3.63;;;;;;;;;;4231704;28;20080;-74
2023/04/18 00:30:29;;;;;;;3.55;3.47;;;;;;;;;;4222308;28;20401;-74
2023/04/18 00:32:50;;;;;;;3.38;3.38;;;;;;;;;;4222488;28;20054;-74
2023/04/18 00:35:10;;;;;;;3.72;3.72;;;;;;;;;;4233460;28;20074;-74
2023/04/18 00:37:30;;;;;;;3.22;3.17;;;;;;;;;;4211186;28;20081;-74
2023/04/18 00:39:52;;;;;;;3.85;3.65;;;;;;;;;;4226809;28;20050;-74
2023/04/18 00:42:12;;;;;;;3.97;3.88;;;;;;;;;;4230369;28;20069;-74
2023/04/18 00:44:33;;;;;;;3.70;3.65;;;;;;;;;;4231589;28;20070;-74
2023/04/18 00:46:53;;;;;;;2.95;2.95;;;;;;;;;;4223398;28;20070;-74
2023/04/18 00:49:13;;;;;;;3.78;3.63;;;;;;;;;;4224531;28;20051;-74
2023/04/18 00:51:34;;;;;;;3.22;3.17;;;;;;;;;;4228978;28;20051;-74
2023/04/18 00:53:55;;;;;;;3.03;3.03;;;;;;;;;;4227568;28;20081;-74
2023/04/18 00:56:16;;;;;;;3.72;3.63;;;;;;;;;;4222108;28;20082;-74
2023/04/18 00:58:39;;;;;;;2.90;2.80;;;;;;;;;;4213015;28;20086;-74
2023/04/18 01:00:59;;;;;;;3.17;3.17;;;;;;;;;;4229637;28;20081;-75
2023/04/18 01:03:21;;;;;;;3.50;3.40;;;;;;;;;;4244453;22;20109;-84
2023/04/18 01:05:42;;;;;;;2.90;2.90;;;;;;;;;;4180923;28;20098;-84
2023/04/18 01:08:02;;;;;;;3.17;3.17;;;;;;;;;;4182427;28;20048;-84
2023/04/18 01:10:23;;;;;;;3.10;3.10;;;;;;;;;;4188863;28;20049;-84
2023/04/18 01:12:43;;;;;;;2.83;2.83;;;;;;;;;;4194260;28;20098;-84
2023/04/18 01:15:04;;;;;;;2.65;2.65;;;;;;;;;;4190994;28;20299;-86
2023/04/18 01:17:27;;;;;;;2.72;2.72;;;;;;;;;;4184218;28;20051;-86
2023/04/18 01:19:47;;;;;;;2.13;2.13;;;;;;;;;;4188584;28;20047;-86
2023/04/18 01:22:08;;;;;;;3.05;3.03;;;;;;;;;;4183369;28;20168;-86
2023/04/18 01:24:30;;;;;;;3.20;3.20;;;;;;;;;;4194163;28;20235;-86
2023/04/18 01:26:51;;;;;;;3.00;3.00;;;;;;;;;;4181501;28;20067;-86
2023/04/18 01:29:11;;;;;;;3.13;2.92;;;;;;;;;;4186992;28;20036;-86
2023/04/18 01:31:35;;;;;;;2.40;2.40;;;;;;;;;;4198338;28;20183;-86
2023/04/18 01:33:55;;;;;;;2.95;2.95;;;;;;;;;;4190034;28;20052;-86
2023/04/18 01:36:15;;;;;;;3.40;3.35;;;;;;;;;;4189192;28;20044;-86
2023/04/18 01:38:35;;;;;;;3.30;3.20;;;;;;;;;;4180180;28;20052;-86
2023/04/18 01:40:55;;;;;;;4.07;3.97;;;;;;;;;;4196596;28;20055;-86
2023/04/18 01:43:15;;;;;;;3.42;3.42;;;;;;;;;;4205785;28;20043;-86
2023/04/18 01:45:35;;;;;;;2.65;2.65;;;;;;;;;;4201231;28;20118;-86
2023/04/18 01:47:55;;;;;;;3.92;3.83;;;;;;;;;;4201865;28;20128;-87
2023/04/18 01:50:16;;;;;;;4.30;4.30;;;;;;;;;;4205876;28;20067;-86
2023/04/18 01:52:36;;;;;;;4.75;4.65;;;;;;;;;;4214330;28;20088;-86
2023/04/18 01:54:56;;;;;;;4.30;4.20;;;;;;;;;;4212312;28;20170;-87
2023/04/18 01:57:17;;;;;;;4.03;3.92;;;;;;;;;;4212044;28;20083;-86
2023/04/18 01:59:37;;;;;;;3.70;3.60;;;;;;;;;;4197148;28;20248;-86
2023/04/18 02:01:58;;;;;;;3.08;2.97;;;;;;;;;;4215123;28;20055;-86
2023/04/18 02:04:18;;;;;;;4.05;3.95;;;;;;;;;;4194684;28;20374;-86
2023/04/18 02:06:39;;;;;;;4.40;4.30;;;;;;;;;;4204107;28;20470;-86
2023/04/18 02:08:59;;;;;;;4.78;4.68;;;;;;;;;;4201297;28;20068;-86
2023/04/18 02:11:19;;;;;;;4.72;4.55;;;;;;;;;;4208313;28;20409;-86
2023/04/18 02:13:39;;;;;;;4.43;4.25;;;;;;;;;;4197199;28;20098;-86
2023/04/18 02:15:59;;;;;;;4.70;4.60;;;;;;;;;;4198723;28;20086;-86
2023/04/18 02:18:20;;;;;;;3.95;3.90;;;;;;;;;;4206782;28;20083;-86
2023/04/18 02:20:40;;;;;;;4.30;4.15;;;;;;;;;;4206387;28;20043;-86
2023/04/18 02:23:01;;;;;;;4.50;4.38;;;;;;;;;;4199442;28;20056;-86
2023/04/18 02:25:25;;;;;;;4.53;4.43;;;;;;;;;;4202707;28;20045;-86
2023/04/18 02:27:45;;;;;;;4.30;4.20;;;;;;;;;;4209030;28;20060;-87
2023/04/18 02:30:06;;;;;;;5.03;4.93;;;;;;;;;;4219446;28;20043;-86
2023/04/18 02:32:27;;;;;;;4.35;4.22;;;;;;;;;;4212121;28;20056;-86
2023/04/18 02:34:47;;;;;;;4.82;4.72;;;;;;;;;;4218210;28;20044;-86
2023/04/18 02:37:07;;;;;;;6.15;5.13;;;;;;;;;;4196686;28;20060;-86
2023/04/18 02:39:27;;;;;;;5.22;5.00;;;;;;;;;;4195288;28;20088;-86
2023/04/18 02:41:47;;;;;;;5.32;5.15;;;;;;;;;;4211189;28;20058;-86
2023/04/18 02:44:08;;;;;;;5.25;5.15;;;;;;;;;;4202983;28;20273;-86
2023/04/18 02:46:28;;;;;;;5.07;4.88;;;;;;;;;;4217182;28;20038;-86
2023/04/18 02:48:48;;;;;;;5.30;5.20;;;;;;;;;;4213509;28;20052;-86
2023/04/18 02:51:08;;;;;;;4.90;4.80;;;;;;;;;;4198536;28;20048;-86
2023/04/18 02:53:29;;;;;;;5.50;5.38;;;;;;;;;;4205476;28;20047;-86
2023/04/18 02:55:49;;;;;;;5.30;5.20;;;;;;;;;;4215161;28;20107;-87
2023/04/18 02:58:10;;;;;;;5.10;5.00;;;;;;;;;;4198527;28;20443;-86
2023/04/18 03:00:30;;;;;;;5.43;5.32;;;;;;;;;;4211739;28;20055;-86
2023/04/18 03:02:51;;;;;;;5.80;5.60;;;;;;;;;;4197589;28;20048;-86
2023/04/18 03:05:12;;;;;;;4.95;4.75;;;;;;;;;;4213538;28;20051;-86
2023/04/18 03:07:32;;;;;;;5.57;5.28;;;;;;;;;;4201155;28;20381;-86
2023/04/18 03:09:53;;;;;;;5.10;5.00;;;;;;;;;;4211103;28;20234;-86
2023/04/18 03:12:13;;;;;;;5.18;5.07;;;;;;;;;;4200543;28;20067;-86
2023/04/18 03:14:33;;;;;;;5.43;5.32;;;;;;;;;;4205597;28;20271;-87
2023/04/18 03:16:54;;;;;;;5.05;4.95;;;;;;;;;;4214773;28;20142;-86
2023/04/18 03:19:15;;;;;;;4.80;4.70;;;;;;;;;;4211762;28;20047;-86
2023/04/18 03:21:35;;;;;;;5.53;5.43;;;;;;;;;;4196107;28;20048;-86
2023/04/18 03:23:55;;;;;;;5.65;5.45;;;;;;;;;;4196537;28;20048;-86
2023/04/18 03:26:15;;;;;;;5.10;5.00;;;;;;;;;;4207609;28;20118;-86
2023/04/18 03:28:36;;;;;;;5.70;5.60;;;;;;;;;;4209837;28;20082;-86
2023/04/18 03:30:56;;;;;;;5.65;5.28;;;;;;;;;;4203901;28;20055;-86
2023/04/18 03:33:16;;;;;;;5.40;5.30;;;;;;;;;;4197795;28;20079;-87
2023/04/18 03:35:36;;;;;;;5.25;5.15;;;;;;;;;;4216179;28;20047;-86
2023/04/18 03:37:56;;;;;;;5.75;5.65;;;;;;;;;;4198768;28;20043;-87
2023/04/18 03:40:17;;;;;;;6.13;5.93;;;;;;;;;;4208543;28;20044;-86
2023/04/18 03:42:38;;;;;;;5.05;4.95;;;;;;;;;;4197508;28;20071;-86
2023/04/18 03:44:58;;;;;;;5.93;5.82;;;;;;;;;;4214429;28;20111;-86
2023/04/18 03:47:18;;;;;;;5.97;5.88;;;;;;;;;;4203445;28;20251;-86
2023/04/18 03:49:39;;;;;;;4.93;4.82;;;;;;;;;;4210279;28;20043;-87
2023/04/18 03:51:59;;;;;;;5.38;5.28;;;;;;;;;;4211278;28;20259;-86
2023/04/18 03:54:19;;;;;;;6.05;5.95;;;;;;;;;;4212937;28;20039;-86
2023/04/18 03:56:40;;;;;;;5.00;4.70;;;;;;;;;;4199038;28;20381;-86
2023/04/18 03:59:00;;;;;;;4.97;4.88;;;;;;;;;;4212001;28;20055;-86
2023/04/18 04:01:21;;;;;;;5.32;5.03;;;;;;;;;;4204035;28;20055;-86
2023/04/18 04:03:41;;;;;;;4.35;4.25;;;;;;;;;;4204225;28;20048;-86
2023/04/18 04:06:02;;;;;;;4.28;4.13;;;;;;;;;;4209509;28;20055;-86
2023/04/18 04:08:22;;;;;;;5.78;5.57;;;;;;;;;;4212690;28;20055;-86
2023/04/18 04:10:42;;;;;;;4.85;4.75;;;;;;;;;;4206140;28;20275;-86
2023/04/18 04:13:02;;;;;;;5.80;5.70;;;;;;;;;;4206058;28;20060;-86
2023/04/18 04:15:23;;;;;;;4.72;4.63;;;;;;;;;;4202096;28;20370;-86
2023/04/18 04:17:43;;;;;;;5.05;4.95;;;;;;;;;;4202239;28;20092;-86
2023/04/18 04:20:04;;;;;;;4.20;4.10;;;;;;;;;;4211412;28;20278;-86
2023/04/18 04:22:24;;;;;;;4.05;3.95;;;;;;;;;;4200658;28;20043;-86
2023/04/18 04:24:45;;;;;;;4.45;4.22;;;;;;;;;;4210817;28;20056;-86
2023/04/18 04:27:06;;;;;;;4.13;4.00;;;;;;;;;;4209522;28;20051;-86
2023/04/18 04:29:28;;;;;;;4.10;4.00;;;;;;;;;;4205551;28;20240;-86
2023/04/18 04:31:48;;;;;;;3.67;3.40;;;;;;;;;;4215616;28;20079;-86
2023/04/18 04:34:09;;;;;;;5.32;5.22;;;;;;;;;;4204785;28;20056;-86
2023/04/18 04:36:29;;;;;;;6.60;6.30;;;;;;;;;;4208986;28;20082;-86
2023/04/18 04:38:51;;;;;;;5.88;5.60;;;;;;;;;;4193507;28;20106;-86
2023/04/18 04:41:11;;;;;;;6.07;5.60;;;;;;;;;;4205490;28;20085;-86
2023/04/18 04:43:31;;;;;;;6.95;6.70;;;;;;;;;;4198755;28;20090;-86
2023/04/18 04:45:51;;;;;;;5.68;5.47;;;;;;;;;;4209319;28;20048;-86
2023/04/18 04:48:12;;;;;;;6.47;6.28;;;;;;;;;;4193646;28;20231;-86
2023/04/18 04:50:36;;;;;;;5.95;5.68;;;;;;;;;;4196967;28;20051;-86
2023/04/18 04:52:57;;;;;;;6.50;6.30;;;;;;;;;;4200285;28;20405;-86
2023/04/18 04:55:17;;;;;;;8.00;7.60;;;;;;;;;;4199538;28;20052;-86
2023/04/18 04:57:38;;;;;;;6.35;6.10;;;;;;;;;;4197038;28;20086;-86
2023/04/18 04:59:58;;;;;;;4.65;4.45;;;;;;;;;;4199365;28;20100;-86
2023/04/18 05:02:21;;;;;;;7.40;7.05;;;;;;;;;;4197669;28;20137;-87
2023/04/18 05:04:42;;;;;;;6.38;6.15;;;;;;;;;;4213394;28;20046;-88
2023/04/18 05:07:03;;;;;;;6.18;5.95;;;;;;;;;;4193510;28;20056;-87
2023/04/18 05:09:24;;;;;;;7.38;7.10;;;;;;;;;;4215691;28;20035;-88
2023/04/18 05:11:46;;;;;;;5.95;5.85;;;;;;;;;;4196171;28;20235;-88
2023/04/18 05:14:06;;;;;;;6.43;6.30;;;;;;;;;;4199268;28;20414;-87
2023/04/18 05:16:26;;;;;;;6.50;6.18;;;;;;;;;;4193214;28;20167;-88
2023/04/18 05:18:46;;;;;;;6.68;6.38;;;;;;;;;;4208232;28;20117;-88
2023/04/18 05:21:07;;;;;;;6.53;5.85;;;;;;;;;;4208971;28;20043;-81
2023/04/18 05:23:27;;;;;;;6.05;5.95;;;;;;;;;;4212568;28;20051;-82
2023/04/18 05:25:47;;;;;;;6.38;5.93;;;;;;;;;;4212887;28;20086;-82
2023/04/18 05:28:07;;;;;;;6.43;6.18;;;;;;;;;;4211754;28;20087;-81
2023/04/18 05:30:27;;;;;;;5.45;5.15;;;;;;;;;;4207470;28;20047;-82
2023/04/18 05:32:48;;;;;;;5.50;5.22;;;;;;;;;;4209450;28;20085;-82
2023/04/18 05:35:08;;;;;;;4.22;4.13;;;;;;;;;;4202196;28;20087;-82
2023/04/18 05:37:28;;;;;;;3.58;3.47;;;;;;;;;;4210573;28;20081;-82
2023/04/18 05:39:49;;;;;;;3.95;3.85;;;;;;;;;;4213480;28;20089;-82
2023/04/18 05:42:09;;;;;;;4.38;4.30;;;;;;;;;;4210190;28;20086;-82
2023/04/18 05:44:29;;;;;;;4.95;4.85;;;;;;;;;;4204857;28;20051;-82
2023/04/18 05:46:50;;;;;;;4.20;4.10;;;;;;;;;;4212381;28;20431;-82
2023/04/18 05:49:10;;;;;;;5.10;4.85;;;;;;;;;;4199058;28;20056;-82
2023/04/18 05:51:31;;;;;;;3.67;3.47;;;;;;;;;;4213817;28;20043;-82
2023/04/18 05:53:51;;;;;;;4.65;4.55;;;;;;;;;;4201140;28;20051;-82
2023/04/18 05:56:11;;;;;;;4.78;4.68;;;;;;;;;;4204949;28;20079;-82
2023/04/18 05:58:31;;;;;;;5.18;4.97;;;;;;;;;;4215696;28;20046;-82
2023/04/18 06:00:52;;;;;;;4.40;4.30;;;;;;;;;;4208943;28;20047;-82
2023/04/18 06:03:12;;;;;;;5.97;5.88;;;;;;;;;;4213868;28;20324;-82
2023/04/18 06:05:33;;;;;;;4.25;4.15;;;;;;;;;;4212055;28;20047;-82
2023/04/18 06:07:54;;;;;;;4.95;4.85;;;;;;;;;;4195022;28;20043;-82
2023/04/18 06:10:14;;;;;;;5.03;4.93;;;;;;;;;;4212667;28;20075;-82
2023/04/18 06:12:35;;;;;;;7.63;7.07;;;;;;;;;;4211412;28;20051;-82
2023/04/18 06:14:55;;;;;;;6.25;6.15;;;;;;;;;;4199619;28;20094;-82
2023/04/18 06:17:15;;;;;;;4.45;4.35;;;;;;;;;;4210865;28;20273;-82
2023/04/18 06:19:35;;;;;;;3.35;3.25;;;;;;;;;;4213214;28;20048;-82
2023/04/18 06:21:56;;;;;;;5.85;5.65;;;;;;;;;;4208306;28;20107;-82
2023/04/18 06:24:16;;;;;;;4.85;4.75;;;;;;;;;;4211827;28;20278;-82
2023/04/18 06:26:36;;;;;;;5.80;5.60;;;;;;;;;;4204981;28;20113;-81
2023/04/18 06:28:57;;;;;;;3.78;3.65;;;;;;;;;;4203589;28;20055;-82
2023/04/18 06:31:17;;;;;;;3.25;3.05;;;;;;;;;;4206993;28;20051;-82
2023/04/18 06:33:37;;;;;;;4.97;4.78;;;;;;;;;;4205048;28;20114;-82
2023/04/18 06:35:58;;;;;;;3.65;3.55;;;;;;;;;;4209659;28;20051;-82
2023/04/18 06:38:18;;;;;;;3.38;3.22;;;;;;;;;;4203596;28;20102;-82
2023/04/18 06:40:38;;;;;;;3.55;3.45;;;;;;;;;;4207324;28;20106;-82
2023/04/18 06:42:58;;;;;;;3.75;3.65;;;;;;;;;;4211685;28;20078;-82
2023/04/18 06:45:18;;;;;;;3.75;3.65;;;;;;;;;;4208061;28;20238;-82
2023/04/18 06:47:39;;;;;;;3.33;3.30;;;;;;;;;;4213667;28;20396;-82
2023/04/18 06:49:59;;;;;;;3.72;3.63;;;;;;;;;;4212260;28;20381;-82
2023/04/18 06:52:20;;;;;;;2.60;2.60;;;;;;;;;;4215391;28;20085;-82
2023/04/18 06:54:40;;;;;;;3.00;2.90;;;;;;;;;;4208926;28;20089;-82
2023/04/18 06:57:02;;;;;;;3.65;3.40;;;;;;;;;;4213426;28;20521;-82
2023/04/18 06:59:22;;;;;;;3.30;3.20;;;;;;;;;;4218482;28;20576;-82
2023/04/18 07:01:42;;;;;;;3.38;3.17;;;;;;;;;;4213901;28;20404;-82
2023/04/18 07:04:02;;;;;;;3.88;3.78;;;;;;;;;;4205252;28;20103;-82
2023/04/18 07:06:23;;;;;;;3.85;3.75;;;;;;;;;;4200331;28;20051;-82
2023/04/18 07:08:43;;;;;;;3.40;3.40;;;;;;;;;;4201542;28;20052;-82
2023/04/18 07:11:03;;;;;;;3.03;2.83;;;;;;;;;;4204813;28;20047;-82
2023/04/18 07:13:23;;;;;;;3.15;3.15;;;;;;;;;;4212554;28;20047;-82
2023/04/18 07:15:43;;;;;;;3.20;3.00;;;;;;;;;;4216196;28;20043;-82
2023/04/18 07:18:04;;;;;;;2.95;2.85;;;;;;;;;;4197959;28;20275;-82
2023/04/18 07:20:24;;;;;;;3.20;3.10;;;;;;;;;;4196946;28;20052;-82
2023/04/18 07:22:46;;;;;;;3.35;3.10;;;;;;;;;;4217380;28;20094;-82
2023/04/18 07:25:07;;;;;;;3.30;3.20;;;;;;;;;;4197444;28;20119;-82
2023/04/18 07:27:27;;;;;;;2.53;2.53;;;;;;;;;;4210771;28;20047;-82
2023/04/18 07:29:47;;;;;;;2.45;2.45;;;;;;;;;;4201148;28;20184;-83
2023/04/18 07:32:08;;;;;;;3.72;3.67;;;;;;;;;;4209214;28;20094;-82
2023/04/18 07:34:29;;;;;;;3.17;3.17;;;;;;;;;;4215965;28;20067;-82
2023/04/18 07:36:49;;;;;;;2.67;2.67;;;;;;;;;;4206055;28;20086;-82
2023/04/18 07:39:09;;;;;;;2.67;2.67;;;;;;;;;;4219315;28;20062;-83
2023/04/18 07:41:30;;;;;;;2.55;2.40;;;;;;;;;;4221720;28;20373;-83
2023/04/18 07:43:50;;;;;;;3.15;3.05;;;;;;;;;;4211966;28;20331;-83
2023/04/18 07:46:10;;;;;;;2.53;2.53;;;;;;;;;;4212312;28;20139;-83
2023/04/18 07:48:30;;;;;;;3.28;2.78;;;;;;;;;;4218069;28;20056;-83
2023/04/18 07:50:51;;;;;;;2.38;2.22;;;;;;;;;;4204571;28;20086;-83
2023/04/18 07:53:11;;;;;;;3.17;2.92;;;;;;;;;;4206681;28;20141;-83
2023/04/18 07:55:31;;;;;;;3.60;3.50;;;;;;;;;;4215859;28;20369;-83
2023/04/18 07:57:52;;;;;;;2.65;2.60;;;;;;;;;;4217464;28;20081;-83
2023/04/18 08:00:12;;;;;;;3.05;2.78;;;;;;;;;;4211292;28;20082;-83
2023/04/18 08:02:33;;;;;;;2.55;2.45;;;;;;;;;;4204032;28;20051;-82
2023/04/18 08:04:54;;;;;;;3.30;2.42;;;;;;;;;;4215865;28;20047;-83
2023/04/18 08:07:15;;;;;;;3.10;3.00;;;;;;;;;;4201207;28;20074;-83
2023/04/18 08:09:36;;;;;;;2.60;2.53;;;;;;;;;;4212929;28;20101;-83
2023/04/18 08:11:57;;;;;;;2.67;2.50;;;;;;;;;;4204249;28;20111;-83
2023/04/18 08:14:17;;;;;;;2.53;2.53;;;;;;;;;;4214076;28;20084;-85
2023/04/18 08:16:38;;;;;;;2.92;2.83;;;;;;;;;;4214038;28;20090;-85
2023/04/18 08:18:58;;;;;;;2.33;2.30;;;;;;;;;;4197977;28;20054;-85
2023/04/18 08:21:19;;;;;;;2.78;2.63;;;;;;;;;;4200137;28;20082;-85
2023/04/18 08:23:39;;;;;;;2.25;2.15;;;;;;;;;;4207958;28;20047;-85
2023/04/18 08:26:00;;;;;;;3.53;3.40;;;;;;;;;;4204686;28;20048;-85
2023/04/18 08:28:20;;;;;;;3.30;3.20;;;;;;;;;;4197020;28;20043;-85
2023/04/18 08:30:41;;;;;;;2.65;2.63;;;;;;;;;;4208189;28;20246;-85
2023/04/18 08:33:01;;;;;;;2.55;2.55;;;;;;;;;;4209475;28;20059;-85
2023/04/18 08:35:22;;;;;;;3.35;3.25;;;;;;;;;;4211252;28;20039;-85
2023/04/18 08:37:42;;;;;;;2.50;2.40;;;;;;;;;;4207276;28;20059;-84
2023/04/18 08:40:04;;;;;;;2.20;2.10;;;;;;;;;;4209534;28;20059;-85
2023/04/18 08:42:25;;;;;;;2.67;2.67;;;;;;;;;;4204202;28;20108;-85
2023/04/18 08:44:46;;;;;;;2.78;2.67;;;;;;;;;;4209957;28;20047;-85
2023/04/18 08:47:08;;;;;;;2.33;2.33;;;;;;;;;;4210291;28;20361;-85
2023/04/18 08:49:29;;;;;;;2.63;2.63;;;;;;;;;;4209124;28;20384;-85
2023/04/18 08:51:50;;;;;;;2.20;2.20;;;;;;;;;;4209980;28;20052;-85
2023/04/18 08:54:11;;;;;;;2.55;2.55;;;;;;;;;;4205311;28;20131;-85
2023/04/18 08:56:32;;;;;;;3.72;3.63;;;;;;;;;;4217873;28;20377;-85
2023/04/18 08:58:52;;;;;;;2.30;2.20;;;;;;;;;;4203068;28;20067;-85
2023/04/18 09:01:12;;;;;;;2.28;2.10;;;;;;;;;;4193303;28;20102;-85
2023/04/18 09:03:38;;;;;;;3.33;3.30;;;;;;;;;;4195636;28;20044;-85
2023/04/18 09:06:19;;;;;;;1.77;1.77;;;;;;;;;;4212354;28;20055;-85
2023/04/18 09:08:41;;;;;;;2.58;2.58;;;;;;;;;;4213238;28;20135;-85
2023/04/18 09:11:41;;;;;;;2.28;2.17;;;;;;;;;;4194503;28;20068;-85
2023/04/18 09:14:01;;;;;;;2.00;2.00;;;;;;;;;;4124867;28;20050;-85
2023/04/18 09:16:22;;;;;;;2.40;2.30;;;;;;;;;;4138403;28;20053;-85
2023/04/18 09:19:02;;;;;;;2.40;2.30;;;;;;;;;;4138405;28;20237;-86
2023/04/18 09:21:26;;;;;;;2.50;2.50;;;;;;;;;;4117942;28;20046;-85
2023/04/18 09:23:47;;;;;;;2.45;2.40;;;;;;;;;;4137919;28;20049;-84
2023/04/18 09:26:08;;;;;;;2.28;2.28;;;;;;;;;;4137965;28;20138;-85
2023/04/18 09:28:30;;;;;;;2.45;2.35;;;;;;;;;;4137132;28;20061;-86
2023/04/18 09:30:51;;;;;;;2.20;2.00;;;;;;;;;;4137059;28;20371;-82
2023/04/18 09:33:11;;;;;;;2.40;2.30;;;;;;;;;;4138036;28;20077;-83
2023/04/18 09:35:32;;;;;;;2.40;2.40;;;;;;;;;;4138508;28;20054;-83
2023/04/18 09:37:52;;;;;;;2.17;2.15;;;;;;;;;;4136879;28;20085;-83
2023/04/18 09:40:17;;;;;;;2.60;2.50;;;;;;;;;;4123767;28;20096;-83
2023/04/18 09:42:37;;;;;;;1.95;1.85;;;;;;;;;;4137980;28;20465;-83
2023/04/18 09:44:58;;;;;;;2.20;2.20;;;;;;;;;;4168546;28;20438;-83
2023/04/18 09:47:18;;;;;;;2.60;2.50;;;;;;;;;;4213473;28;20046;-83
2023/04/18 09:49:38;;;;;;;2.50;2.50;;;;;;;;;;4212206;28;20046;-83
2023/04/18 09:51:58;;;;;;;1.88;1.70;;;;;;;;;;4200201;28;20067;-83
2023/04/18 09:54:19;;;;;;;3.03;2.92;;;;;;;;;;4213488;28;20266;-83
2023/04/18 09:56:42;;;;;;;2.13;1.92;;;;;;;;;;4199879;28;20290;-83
2023/04/18 09:59:05;;;;;;;2.13;2.13;;;;;;;;;;4199618;28;20048;-83
2023/04/18 10:01:27;;;;;;;3.13;3.03;;;;;;;;;;4212985;28;20242;-83
2023/04/18 10:03:50;;;;;;;6.28;3.72;;;;;;;;;;4205240;28;20108;-83
2023/04/18 10:06:11;;;;;;;2.00;2.00;;;;;;;;;;4209550;28;20052;-83
2023/04/18 10:08:31;;;;;;;2.75;1.88;;;;;;;;;;4210046;28;20047;-83
2023/04/18 10:10:54;;;;;;;1.92;1.85;;;;;;;;;;4214244;28;20109;-83
2023/04/18 10:13:14;;;;;;;2.25;2.25;;;;;;;;;;4212624;28;20112;-84
2023/04/18 10:15:35;;;;;;;3.78;1.75;;;;;;;;;;4211743;28;20090;-84
2023/04/18 10:17:57;;;;;;;1.63;1.63;;;;;;;;;;4211081;28;20149;-83
2023/04/18 10:20:26;;;;;;;3.00;1.77;;;;;;;;;;4201774;28;20082;-83
2023/04/18 10:22:47;;;;;;;1.92;1.92;;;;;;;;;;4201388;28;20078;-83
2023/04/18 10:25:07;;;;;;;2.83;2.55;;;;;;;;;;4207324;28;20102;-83
2023/04/18 10:27:46;;;;;;;2.10;1.90;;;;;;;;;;4216301;28;20051;-83
2023/04/18 10:30:07;;;;;;;1.90;1.90;;;;;;;;;;4218224;28;20085;-83
2023/04/18 10:32:29;;;;;;;2.03;2.03;;;;;;;;;;4213480;28;20074;-83
2023/04/18 10:34:52;;;;;;;2.03;1.92;;;;;;;;;;4211333;28;20067;-83
2023/04/18 10:37:13;;;;;;;1.83;1.83;;;;;;;;;;4214260;28;20071;-83
2023/04/18 10:39:56;;;;;;;2.33;2.33;;;;;;;;;;4213362;28;20079;-83
2023/04/18 10:42:16;;;;;;;2.88;2.80;;;;;;;;;;4219117;28;20309;-83
2023/04/18 10:44:37;;;;;;;2.58;2.58;;;;;;;;;;4217264;28;20062;-83
2023/04/18 10:46:57;;;;;;;2.20;2.20;;;;;;;;;;4213850;28;20048;-83
2023/04/18 10:49:18;;;;;;;2.80;2.70;;;;;;;;;;4197729;28;20048;-83
2023/04/18 10:51:38;;;;;;;2.10;2.10;;;;;;;;;;4217178;28;20055;-83
2023/04/18 10:53:59;;;;;;;2.58;2.47;;;;;;;;;;4206201;28;20565;-83
2023/04/18 10:56:20;;;;;;;2.10;2.10;;;;;;;;;;4212609;28;20090;-83
2023/04/18 10:58:41;;;;;;;3.55;3.25;;;;;;;;;;4211662;28;20078;-83
2023/04/18 11:01:02;;;;;;;3.90;3.63;;;;;;;;;;4216922;28;20062;-83
2023/04/18 11:03:32;;;;;;;2.03;2.03;;;;;;;;;;4211303;28;20043;-83
2023/04/18 11:06:00;;;;;;;2.38;2.22;;;;;;;;;;4211492;28;20112;-83
2023/04/18 11:08:22;;;;;;;2.72;1.75;;;;;;;;;;4208971;28;20291;-83
2023/04/18 11:10:43;;;;;;;2.38;2.28;;;;;;;;;;4204493;28;20066;-83
2023/04/18 11:13:05;;;;;;;2.22;2.13;;;;;;;;;;4217050;28;20392;-83
2023/04/18 11:15:26;;;;;;;2.15;2.15;;;;;;;;;;4211158;28;20055;-83
2023/04/18 11:17:59;;;;;;;2.13;2.03;;;;;;;;;;4203047;28;20051;-83
2023/04/18 11:20:20;;;;;;;2.38;1.98;;;;;;;;;;4214405;28;20087;-83
2023/04/18 11:22:47;;;;;;;2.25;2.15;;;;;;;;;;4211518;28;20139;-83
2023/04/18 11:25:07;;;;;;;2.58;2.58;;;;;;;;;;4214618;28;20071;-83
2023/04/18 11:27:29;;;;;;;2.88;2.47;;;;;;;;;;4202294;28;20051;-83
2023/04/18 11:29:52;;;;;;;2.65;2.45;;;;;;;;;;4214482;28;20073;-83
2023/04/18 11:32:12;;;;;;;2.70;2.60;;;;;;;;;;4198362;28;20393;-83
2023/04/18 11:34:32;;;;;;;3.42;3.33;;;;;;;;;;4214452;28;20058;-83
2023/04/18 11:36:52;;;;;;;2.47;2.38;;;;;;;;;;4203676;28;20365;-83
2023/04/18 11:39:13;;;;;;;2.78;2.58;;;;;;;;;;4215697;28;20388;-83
2023/04/18 11:41:33;;;;;;;2.22;2.20;;;;;;;;;;4197089;28;20055;-83
2023/04/18 11:43:53;;;;;;;1.90;1.80;;;;;;;;;;4197924;28;20107;-86
2023/04/18 11:46:14;;;;;;;2.50;1.95;;;;;;;;;;4200004;28;20051;-86
2023/04/18 11:48:38;;;;;;;2.47;2.38;;;;;;;;;;4196470;28;20056;-86
2023/04/18 11:50:58;;;;;;;2.10;2.10;;;;;;;;;;4214086;28;20092;-86
2023/04/18 11:53:32;;;;;;;1.65;1.65;;;;;;;;;;4212269;28;20054;-86
2023/04/18 11:55:56;;;;;;;3.55;3.40;;;;;;;;;;4211015;28;20465;-85
2023/04/18 11:58:16;;;;;;;2.50;2.50;;;;;;;;;;4203173;28;20048;-85
2023/04/18 12:00:42;;;;;;;2.13;2.10;;;;;;;;;;4212953;28;20047;-85
2023/04/18 12:03:03;;;;;;;2.33;2.33;;;;;;;;;;4197686;28;20080;-86
2023/04/18 12:05:28;;;;;;;3.53;3.42;;;;;;;;;;4198038;28;20048;-86
2023/04/18 12:07:49;;;;;;;4.18;3.97;;;;;;;;;;4213233;28;20146;-86
2023/04/18 12:10:22;;;;;;;2.90;2.80;;;;;;;;;;4212869;28;20396;-86
2023/04/18 12:12:47;;;;;;;3.83;3.72;;;;;;;;;;4212213;28;20085;-85
2023/04/18 12:15:08;;;;;;;2.13;2.13;;;;;;;;;;4213280;28;20047;-85
2023/04/18 12:17:29;;;;;;;1.70;1.60;;;;;;;;;;4211933;28;20393;-86
2023/04/18 12:19:49;;;;;;;2.42;2.42;;;;;;;;;;4198146;28;20095;-86
2023/04/18 12:22:10;;;;;;;1.80;1.80;;;;;;;;;;4213693;28;20047;-86
2023/04/18 12:24:34;;;;;;;2.58;2.30;;;;;;;;;;4211965;28;20274;-85
2023/04/18 12:26:56;;;;;;;2.20;2.10;;;;;;;;;;4210679;28;20086;-87
2023/04/18 12:29:16;;;;;;;5.57;4.32;;;;;;;;;;4210058;28;20097;-83
2023/04/18 12:31:36;;;;;;;2.85;2.75;;;;;;;;;;4212086;28;20377;-83
2023/04/18 12:33:58;;;;;;;3.05;2.95;;;;;;;;;;4212336;28;20047;-83
2023/04/18 12:36:21;;;;;;;2.80;2.70;;;;;;;;;;4213194;28;20065;-83
2023/04/18 12:38:42;;;;;;;2.50;2.40;;;;;;;;;;4202639;28;20169;-82
2023/04/18 12:41:02;;;;;;;2.47;2.47;;;;;;;;;;4210035;28;20051;-83
2023/04/18 12:43:22;;;;;;;2.78;2.67;;;;;;;;;;4212632;28;20051;-82
2023/04/18 12:45:43;;;;;;;2.47;2.38;;;;;;;;;;4202972;28;20039;-82
2023/04/18 12:48:03;;;;;;;2.72;2.70;;;;;;;;;;4195853;28;20055;-83
2023/04/18 12:50:24;;;;;;;2.63;2.50;;;;;;;;;;4211934;28;20071;-83
2023/04/18 12:52:44;;;;;;;3.05;2.95;;;;;;;;;;4213060;28;20290;-82
2023/04/18 12:55:08;;;;;;;4.22;4.13;;;;;;;;;;4217097;28;20051;-82
2023/04/18 12:57:28;;;;;;;3.40;3.25;;;;;;;;;;4211673;28;20247;-82
2023/04/18 12:59:51;;;;;;;2.60;2.50;;;;;;;;;;4200689;28;20040;-82
2023/04/18 13:02:12;;;;;;;3.10;3.00;;;;;;;;;;4203414;28;20106;-82
2023/04/18 13:04:32;;;;;;;2.90;2.80;;;;;;;;;;4213422;28;20048;-82
2023/04/18 13:06:53;;;;;;;2.70;2.70;;;;;;;;;;4213076;28;20293;-82
2023/04/18 13:09:15;;;;;;;2.78;2.67;;;;;;;;;;4212056;28;20070;-82
2023/04/18 13:11:35;;;;;;;3.35;3.30;;;;;;;;;;4200150;28;20047;-82
2023/04/18 13:13:55;;;;;;;2.13;2.13;;;;;;;;;;4198062;28;20056;-82
2023/04/18 13:16:15;;;;;;;2.00;2.00;;;;;;;;;;4198883;28;20051;-82
2023/04/18 13:18:36;;;;;;;2.03;1.83;;;;;;;;;;4210183;28;20115;-82
2023/04/18 13:20:56;;;;;;;2.60;2.60;;;;;;;;;;4212064;28;20066;-82
2023/04/18 13:23:16;;;;;;;2.90;2.90;;;;;;;;;;4198646;28;20120;-82
2023/04/18 13:25:36;;;;;;;3.25;3.17;;;;;;;;;;4198356;28;20310;-82
2023/04/18 13:27:57;;;;;;;2.30;2.20;;;;;;;;;;4210591;28;20047;-82
2023/04/18 13:30:17;;;;;;;2.10;1.80;;;;;;;;;;4196150;28;20048;-82
2023/04/18 13:32:39;;;;;;;1.52;1.50;;;;;;;;;;4216658;28;20050;-82
2023/04/18 13:35:00;;;;;;;1.85;1.75;;;;;;;;;;4210416;28;20121;-82
2023/04/18 13:37:20;;;;;;;1.40;1.40;;;;;;;;;;4205043;28;20081;-82
2023/04/18 13:39:41;;;;;;;1.55;1.55;;;;;;;;;;4210532;28;20051;-82
2023/04/18 13:42:02;;;;;;;2.85;1.70;;;;;;;;;;4211671;28;20047;-82
2023/04/18 13:44:23;;;;;;;1.88;1.88;;;;;;;;;;4212031;28;20064;-82
2023/04/18 13:46:44;;;;;;;1.65;1.65;;;;;;;;;;4212852;28;20046;-82
2023/04/18 13:49:04;;;;;;;1.40;1.40;;;;;;;;;;4211175;28;20098;-82
2023/04/18 13:51:27;;;;;;;1.20;1.20;;;;;;;;;;4211544;28;20059;-82
2023/04/18 13:53:47;;;;;;;1.27;1.20;;;;;;;;;;4202623;28;20083;-82
2023/04/18 13:56:07;;;;;;;1.20;1.20;;;;;;;;;;4204109;28;20047;-82
2023/04/18 13:58:27;;;;;;;1.30;1.30;;;;;;;;;;4211401;28;20098;-82
2023/04/18 14:00:48;;;;;;;1.25;1.25;;;;;;;;;;4200778;28;20051;-82
2023/04/18 14:03:08;;;;;;;1.50;1.50;;;;;;;;;;4214432;28;20141;-82
2023/04/18 14:05:28;;;;;;;1.40;1.40;;;;;;;;;;4207403;28;20314;-82
2023/04/18 14:07:49;;;;;;;1.38;1.38;;;;;;;;;;4203192;28;20110;-82